createdAt,value
2022-08-12T00:00:09.068Z,100.00
2022-08-12T00:02:55.006Z,100.00
2022-08-12T00:06:01.746Z,100.00
2022-08-12T00:08:48.487Z,100.00
2022-08-12T00:11:34.051Z,100.00
2022-08-12T00:14:19.287Z,100.00
2022-08-12T00:17:05.436Z,100.00
2022-08-12T00:19:50.863Z,100.00
2022-08-12T00:22:37.833Z,100.00
2022-08-12T00:26:01.416Z,100.00
2022-08-12T00:28:31.414Z,100.00
2022-08-12T00:31:16.818Z,100.00
2022-08-12T00:34:02.142Z,100.00
2022-08-12T00:36:50.190Z,100.00
2022-08-12T00:39:36.294Z,100.00
2022-08-12T00:42:11.329Z,100.00
2022-08-12T00:44:42.258Z,100.00
2022-08-12T00:47:24.512Z,100.00
2022-08-12T00:49:55.763Z,100.00
2022-08-12T00:52:25.143Z,100.00
2022-08-12T00:54:54.951Z,100.00
2022-08-12T00:57:29.020Z,100.00
2022-08-12T00:59:59.291Z,100.00
2022-08-12T01:02:28.927Z,100.00
2022-08-12T01:05:18.363Z,100.00
2022-08-12T01:08:06.064Z,100.00
2022-08-12T01:10:54.475Z,100.00
2022-08-12T01:13:24.410Z,100.00
2022-08-12T01:15:54.527Z,100.00
2022-08-12T01:18:23.630Z,100.00
2022-08-12T01:21:04.699Z,100.00
2022-08-12T01:23:56.360Z,100.00
2022-08-12T01:26:27.146Z,100.00
2022-08-12T01:28:58.958Z,100.00
2022-08-12T01:31:29.376Z,100.00
2022-08-12T01:34:03.694Z,100.00
2022-08-12T01:36:41.177Z,100.00
2022-08-12T01:39:10.250Z,100.00
2022-08-12T01:41:43.026Z,100.00
2022-08-12T01:44:20.792Z,100.00
2022-08-12T01:46:53.585Z,100.00
2022-08-12T01:49:48.687Z,100.00
2022-08-12T01:52:28.534Z,100.00
2022-08-12T01:54:58.758Z,100.00
2022-08-12T01:57:59.657Z,100.00
2022-08-12T02:00:55.409Z,100.00
2022-08-12T02:03:53.412Z,100.00
2022-08-12T02:06:46.256Z,100.00
2022-08-12T02:09:34.814Z,100.00
2022-08-12T02:12:16.121Z,100.00
2022-08-12T02:14:57.319Z,100.00
2022-08-12T02:17:55.652Z,100.00
2022-08-12T02:20:52.005Z,100.00
2022-08-12T02:23:25.541Z,100.00
2022-08-12T02:25:57.055Z,100.00
2022-08-12T02:28:26.234Z,100.00
2022-08-12T02:30:56.319Z,100.00
2022-08-12T02:33:25.553Z,100.00
2022-08-12T02:35:53.886Z,100.00
2022-08-12T02:38:27.423Z,100.00
2022-08-12T02:40:57.043Z,100.00
2022-08-12T02:43:32.095Z,100.00
2022-08-12T02:46:09.319Z,100.00
2022-08-12T02:48:47.434Z,100.00
2022-08-12T02:51:20.573Z,100.00
2022-08-12T02:54:03.294Z,100.00
2022-08-12T02:56:36.470Z,100.00
2022-08-12T02:59:04.882Z,100.00
2022-08-12T03:01:35.788Z,100.00
2022-08-12T03:04:21.323Z,100.00
2022-08-12T03:07:00.692Z,100.00
2022-08-12T03:09:38.173Z,100.00
2022-08-12T03:12:24.982Z,100.00
2022-08-12T03:14:55.583Z,100.00
2022-08-12T03:17:29.496Z,100.00
2022-08-12T03:20:09.213Z,100.00
2022-08-12T03:22:41.147Z,100.00
2022-08-12T03:25:16.302Z,100.00
2022-08-12T03:27:55.736Z,100.00
2022-08-12T03:30:25.995Z,100.00
2022-08-12T03:32:57.672Z,100.00
2022-08-12T03:35:41.637Z,100.00
2022-08-12T03:38:16.125Z,100.00
2022-08-12T03:41:15.323Z,100.00
2022-08-12T03:44:06.727Z,100.00
2022-08-12T03:46:58.168Z,100.00
2022-08-12T03:49:45.599Z,100.00
2022-08-12T03:52:31.127Z,100.00
2022-08-12T03:55:16.801Z,100.00
2022-08-12T03:58:02.381Z,100.00
2022-08-12T04:00:31.582Z,100.00
2022-08-12T04:03:01.704Z,100.00
2022-08-12T04:05:54.503Z,100.00
2022-08-12T04:08:24.314Z,100.00
2022-08-12T04:11:09.814Z,100.00
2022-08-12T04:13:37.717Z,100.00
2022-08-12T04:16:07.987Z,100.00
2022-08-12T04:18:36.488Z,100.00
2022-08-12T04:21:07.534Z,100.00
2022-08-12T04:23:36.353Z,100.00
2022-08-12T04:26:06.754Z,100.00
2022-08-12T04:28:34.934Z,100.00
2022-08-12T04:31:04.754Z,100.00
2022-08-12T04:33:32.750Z,100.00
2022-08-12T04:36:00.691Z,100.00
2022-08-12T04:38:31.059Z,100.00
2022-08-12T04:40:59.252Z,100.00
2022-08-12T04:43:59.570Z,100.00
2022-08-12T04:46:17.554Z,100.00
2022-08-12T04:48:49.024Z,100.00
2022-08-12T04:51:17.509Z,100.00
2022-08-12T04:53:48.348Z,100.00
2022-08-12T04:56:16.856Z,100.00
2022-08-12T04:58:48.363Z,100.00
2022-08-12T05:01:18.567Z,100.00
2022-08-12T05:03:48.226Z,100.00
2022-08-12T05:06:20.766Z,100.00
2022-08-12T05:08:57.580Z,100.00
2022-08-12T05:11:26.323Z,100.00
2022-08-12T05:14:01.373Z,100.00
2022-08-12T05:16:34.157Z,100.00
2022-08-12T05:19:05.495Z,100.00
2022-08-12T05:21:41.438Z,100.00
2022-08-12T05:24:11.561Z,100.00
2022-08-12T05:26:41.050Z,100.00
2022-08-12T05:30:08.009Z,100.00
2022-08-12T05:32:03.071Z,100.00
2022-08-12T05:34:31.452Z,100.00
2022-08-12T05:36:59.827Z,100.00
2022-08-12T05:39:29.197Z,100.00
2022-08-12T05:41:57.806Z,100.00
2022-08-12T05:44:25.766Z,100.00
2022-08-12T05:46:53.705Z,100.00
2022-08-12T05:49:21.780Z,100.00
2022-08-12T05:51:49.775Z,100.00
2022-08-12T05:54:21.914Z,100.00
2022-08-12T05:56:57.090Z,100.00
2022-08-12T05:59:24.950Z,100.00
2022-08-12T06:02:11.715Z,100.00
2022-08-12T06:04:42.020Z,100.00
2022-08-12T06:08:00.127Z,100.00
2022-08-12T06:10:02.027Z,100.00
2022-08-12T06:12:31.528Z,100.00
2022-08-12T06:15:00.182Z,100.00
2022-08-12T06:17:30.962Z,100.00
2022-08-12T06:20:27.331Z,100.00
2022-08-12T06:22:48.848Z,100.00
2022-08-12T06:25:21.840Z,100.00
2022-08-12T06:28:06.455Z,100.00
2022-08-12T06:30:39.417Z,100.00
2022-08-12T06:33:22.382Z,100.00
2022-08-12T06:35:57.287Z,100.00
2022-08-12T06:38:28.450Z,100.00
2022-08-12T06:41:15.310Z,100.00
2022-08-12T06:44:06.364Z,100.00
2022-08-12T06:46:36.954Z,100.00
2022-08-12T06:49:06.907Z,100.00
2022-08-12T06:51:34.915Z,100.00
2022-08-12T06:54:03.359Z,100.00
2022-08-12T06:57:01.777Z,100.00
2022-08-12T06:59:21.631Z,100.00
2022-08-12T07:01:51.577Z,100.00
2022-08-12T07:04:38.380Z,100.00
2022-08-12T07:07:08.245Z,100.00
2022-08-12T07:10:06.983Z,100.00
2022-08-12T07:12:36.537Z,100.00
2022-08-12T07:15:06.756Z,100.00
2022-08-12T07:17:37.734Z,100.00
2022-08-12T07:20:29.845Z,100.00
2022-08-12T07:23:00.416Z,100.00
2022-08-12T07:25:40.509Z,100.00
2022-08-12T07:28:13.527Z,100.00
2022-08-12T07:30:48.546Z,100.00
2022-08-12T07:33:17.910Z,100.00
2022-08-12T07:35:48.533Z,100.00
2022-08-12T07:38:28.981Z,100.00
2022-08-12T07:41:03.334Z,100.00
2022-08-12T07:43:31.903Z,100.00
2022-08-12T07:46:02.888Z,100.00
2022-08-12T07:48:37.054Z,100.00
2022-08-12T07:51:05.346Z,100.00
2022-08-12T07:53:33.311Z,100.00
2022-08-12T07:56:16.884Z,99.54
2022-08-12T07:58:47.236Z,100.00
2022-08-12T08:01:17.634Z,92.55
2022-08-12T08:04:02.859Z,100.00
2022-08-12T08:06:32.423Z,100.00
2022-08-12T08:09:01.385Z,100.00
2022-08-12T08:11:47.229Z,100.00
2022-08-12T08:14:15.643Z,99.29
2022-08-12T08:16:46.413Z,100.00
2022-08-12T08:19:19.269Z,100.00
2022-08-12T08:21:47.368Z,100.00
2022-08-12T08:24:18.307Z,100.00
2022-08-12T08:26:48.535Z,99.83
2022-08-12T08:29:16.764Z,99.50
2022-08-12T08:31:50.967Z,99.17
2022-08-12T08:34:33.482Z,97.88
2022-08-12T08:37:10.688Z,95.42
2022-08-12T08:39:43.586Z,93.92
2022-08-12T08:42:29.076Z,93.28
2022-08-12T08:44:58.860Z,93.43
2022-08-12T08:47:28.210Z,92.26
2022-08-12T08:50:01.258Z,93.81
2022-08-12T08:52:39.915Z,93.07
2022-08-12T08:55:10.407Z,94.79
2022-08-12T08:57:43.403Z,92.79
2022-08-12T09:00:15.438Z,91.77
2022-08-12T09:02:49.516Z,91.67
2022-08-12T09:05:27.115Z,92.64
2022-08-12T09:10:44.931Z,93.25
2022-08-12T09:14:11.803Z,91.50
2022-08-12T09:16:23.122Z,93.44
2022-08-12T09:18:53.254Z,91.25
2022-08-12T09:21:23.103Z,91.67
2022-08-12T09:23:59.789Z,90.14
2022-08-12T09:26:38.223Z,91.75
2022-08-12T09:29:15.592Z,91.57
2022-08-12T09:32:03.373Z,91.29
2022-08-12T09:34:36.428Z,91.03
2022-08-12T09:37:19.518Z,89.16
2022-08-12T09:40:05.720Z,89.67
2022-08-12T09:43:16.018Z,89.63
2022-08-12T09:46:06.328Z,91.38
2022-08-12T09:48:39.883Z,89.46
2022-08-12T09:51:17.060Z,91.41
2022-08-12T09:54:09.209Z,91.46
2022-08-12T09:56:59.943Z,90.32
2022-08-12T10:00:12.819Z,89.05
2022-08-12T10:02:44.845Z,89.80
2022-08-12T10:05:04.791Z,89.50
2022-08-12T10:07:40.348Z,89.45
2022-08-12T10:10:23.089Z,87.69
2022-08-12T10:13:13.475Z,88.93
2022-08-12T10:16:01.944Z,87.47
2022-08-12T10:18:35.284Z,87.06
2022-08-12T10:21:07.507Z,86.53
2022-08-12T10:23:39.944Z,87.21
2022-08-12T10:26:37.945Z,86.06
2022-08-12T10:30:03.195Z,87.39
2022-08-12T10:32:42.885Z,87.90
2022-08-12T10:35:09.940Z,86.79
2022-08-12T10:38:38.402Z,87.49
2022-08-12T10:40:32.039Z,86.29
2022-08-12T10:43:18.636Z,86.47
2022-08-12T10:45:47.211Z,86.93
2022-08-12T10:48:21.469Z,86.63
2022-08-12T10:50:56.655Z,87.08
2022-08-12T10:53:45.758Z,86.62
2022-08-12T10:56:17.000Z,84.06
2022-08-12T10:58:47.129Z,85.41
2022-08-12T11:04:14.279Z,85.64
2022-08-12T11:04:18.991Z,85.05
2022-08-12T11:07:05.356Z,83.86
2022-08-12T11:10:00.625Z,83.77
2022-08-12T11:12:54.559Z,83.67
2022-08-12T11:15:32.994Z,85.46
2022-08-12T11:18:17.815Z,84.83
2022-08-12T11:20:48.137Z,83.73
2022-08-12T11:23:36.145Z,82.62
2022-08-12T11:26:06.329Z,81.81
2022-08-12T11:28:37.516Z,81.83
2022-08-12T11:31:11.914Z,84.27
2022-08-12T11:34:06.465Z,84.35
2022-08-12T11:36:29.736Z,84.34
2022-08-12T11:38:58.839Z,82.59
2022-08-12T11:41:32.811Z,82.86
2022-08-12T11:44:36.320Z,81.92
2022-08-12T11:46:52.870Z,81.19
2022-08-12T11:49:30.969Z,80.73
2022-08-12T11:52:03.787Z,81.87
2022-08-12T11:54:32.149Z,80.54
2022-08-12T11:58:07.593Z,80.22
2022-08-12T12:02:39.936Z,81.57
2022-08-12T12:05:08.834Z,82.85
2022-08-12T12:08:37.533Z,83.14
2022-08-12T12:10:27.519Z,83.01
2022-08-12T12:12:55.382Z,83.41
2022-08-12T12:15:40.915Z,83.66
2022-08-12T12:18:22.338Z,82.57
2022-08-12T12:20:56.949Z,81.52
2022-08-12T12:23:29.124Z,82.40
2022-08-12T12:25:59.409Z,83.22
2022-08-12T12:28:36.797Z,83.21
2022-08-12T12:31:15.053Z,82.09
2022-08-12T12:33:58.033Z,82.03
2022-08-12T12:36:29.770Z,82.03
2022-08-12T12:38:58.290Z,81.70
2022-08-12T12:42:40.596Z,82.55
2022-08-12T12:44:26.134Z,82.96
2022-08-12T12:47:29.303Z,82.57
2022-08-12T12:49:54.042Z,81.34
2022-08-12T12:52:26.784Z,81.97
2022-08-12T12:54:58.617Z,81.26
2022-08-12T12:57:59.375Z,80.94
2022-08-12T13:00:16.661Z,81.31
2022-08-12T13:02:53.994Z,81.63
2022-08-12T13:05:28.005Z,82.41
2022-08-12T13:08:00.806Z,81.29
2022-08-12T13:10:36.453Z,80.59
2022-08-12T13:14:08.614Z,80.57
2022-08-12T13:15:53.977Z,81.47
2022-08-12T13:18:36.406Z,80.96
2022-08-12T13:21:05.755Z,80.70
2022-08-12T13:23:46.505Z,81.07
2022-08-12T13:26:17.304Z,81.63
2022-08-12T13:28:49.631Z,81.45
2022-08-12T13:31:22.342Z,80.71
2022-08-12T13:34:34.183Z,81.65
2022-08-12T13:36:43.165Z,80.81
2022-08-12T13:39:12.653Z,77.49
2022-08-12T13:41:44.613Z,80.63
2022-08-12T13:44:13.054Z,79.88
2022-08-12T13:46:42.244Z,80.50
2022-08-12T13:49:17.674Z,80.17
2022-08-12T13:52:01.630Z,81.10
2022-08-12T13:54:29.795Z,80.48
2022-08-12T13:56:58.116Z,81.78
2022-08-12T13:59:26.632Z,80.41
2022-08-12T14:01:56.694Z,80.52
2022-08-12T14:04:27.353Z,81.82
2022-08-12T14:06:55.442Z,80.73
2022-08-12T14:09:23.413Z,81.19
2022-08-12T14:11:59.516Z,80.98
2022-08-12T14:14:31.309Z,80.56
2022-08-12T14:17:05.189Z,81.02
2022-08-12T14:19:39.226Z,81.41
2022-08-12T14:22:19.287Z,81.66
2022-08-12T14:24:47.227Z,81.83
2022-08-12T14:27:15.197Z,81.90
2022-08-12T14:30:17.278Z,82.45
2022-08-12T14:32:53.875Z,82.93
2022-08-12T14:35:24.503Z,83.69
2022-08-12T14:37:57.203Z,83.65
2022-08-12T14:40:28.016Z,83.97
2022-08-12T14:42:57.269Z,85.48
2022-08-12T14:45:44.448Z,85.18
2022-08-12T14:48:15.846Z,85.17
2022-08-12T14:52:07.931Z,85.31
2022-08-12T14:59:56.864Z,86.48
2022-08-12T15:02:20.741Z,85.86
2022-08-12T15:04:55.960Z,86.08
2022-08-12T15:07:43.605Z,85.88
2022-08-12T15:10:15.037Z,86.53
2022-08-12T15:13:00.027Z,86.54
2022-08-12T15:15:32.538Z,87.14
2022-08-12T15:18:02.484Z,86.73
2022-08-12T15:20:37.713Z,86.74
2022-08-12T15:23:18.023Z,86.54
2022-08-12T15:26:02.937Z,86.88
2022-08-12T15:28:33.346Z,87.63
2022-08-12T15:31:02.385Z,87.58
2022-08-12T15:33:45.102Z,87.00
2022-08-12T15:36:19.566Z,87.09
2022-08-12T15:39:04.502Z,87.39
2022-08-12T15:41:49.085Z,88.06
2022-08-12T15:44:38.692Z,87.41
2022-08-12T15:47:06.925Z,88.05
2022-08-12T15:49:54.199Z,87.76
2022-08-12T15:52:28.963Z,86.91
2022-08-12T15:55:06.477Z,88.11
2022-08-12T15:57:40.115Z,87.79
2022-08-12T16:00:31.846Z,87.88
2022-08-12T16:02:59.052Z,88.55
2022-08-12T16:06:17.080Z,88.48
2022-08-12T16:08:24.012Z,88.45
2022-08-12T16:10:57.623Z,88.35
2022-08-12T16:13:34.526Z,88.28
2022-08-12T16:16:12.220Z,88.49
2022-08-12T16:18:51.452Z,88.76
2022-08-12T16:21:50.510Z,88.62
2022-08-12T16:24:08.542Z,89.31
2022-08-12T16:26:40.777Z,89.69
2022-08-12T16:29:15.918Z,89.83
2022-08-12T16:31:44.840Z,89.66
2022-08-12T16:34:25.721Z,89.97
2022-08-12T16:37:07.330Z,90.71
2022-08-12T16:39:59.516Z,90.55
2022-08-12T16:42:28.256Z,90.46
2022-08-12T16:44:57.063Z,90.26
2022-08-12T16:47:27.163Z,89.57
2022-08-12T16:49:55.663Z,90.48
2022-08-12T16:52:24.267Z,90.28
2022-08-12T16:54:52.991Z,90.98
2022-08-12T16:57:34.784Z,90.50
2022-08-12T17:00:17.044Z,91.47
2022-08-12T17:02:50.716Z,90.79
2022-08-12T17:05:25.328Z,91.26
2022-08-12T17:08:01.230Z,91.74
2022-08-12T17:10:36.418Z,91.81
2022-08-12T17:13:10.037Z,92.48
2022-08-12T17:15:57.656Z,92.07
2022-08-12T17:18:42.383Z,92.41
2022-08-12T17:21:17.259Z,92.58
2022-08-12T17:23:53.489Z,92.67
2022-08-12T17:26:22.824Z,92.88
2022-08-12T17:28:57.864Z,93.29
2022-08-12T17:32:01.713Z,93.10
2022-08-12T17:34:38.661Z,94.00
2022-08-12T17:37:07.315Z,94.18
2022-08-12T17:40:12.282Z,94.16
2022-08-12T17:42:34.696Z,94.55
2022-08-12T17:45:18.040Z,94.63
2022-08-12T17:48:04.490Z,94.53
2022-08-12T17:50:34.340Z,95.18
2022-08-12T17:53:03.558Z,94.61
2022-08-12T17:55:40.402Z,95.25
2022-08-12T17:58:13.989Z,96.29
2022-08-12T18:00:45.588Z,96.38
2022-08-12T18:04:05.734Z,96.54
2022-08-12T18:06:13.729Z,96.64
2022-08-12T18:08:53.631Z,97.13
2022-08-12T18:12:03.698Z,97.06
2022-08-12T18:14:29.974Z,97.92
2022-08-12T18:17:00.766Z,98.36
2022-08-12T18:20:03.790Z,98.49
2022-08-12T18:22:30.622Z,98.62
2022-08-12T18:25:02.755Z,98.52
2022-08-12T18:27:44.832Z,98.75
2022-08-12T18:30:20.753Z,100.00
2022-08-12T18:33:03.670Z,100.00
2022-08-12T18:35:46.929Z,100.00
2022-08-12T18:38:21.155Z,100.00
2022-08-12T18:41:09.722Z,100.00
2022-08-12T18:43:58.898Z,100.00
2022-08-12T18:46:35.008Z,100.00
2022-08-12T18:49:17.995Z,100.00
2022-08-12T18:51:55.034Z,100.00
2022-08-12T18:54:33.416Z,100.00
2022-08-12T18:57:05.086Z,100.00
2022-08-12T19:00:02.366Z,100.00
2022-08-12T19:02:23.388Z,100.00
2022-08-12T19:04:53.532Z,100.00
2022-08-12T19:07:29.680Z,100.00
2022-08-12T19:10:14.278Z,100.00
2022-08-12T19:13:00.782Z,100.00
2022-08-12T19:15:30.002Z,100.00
2022-08-12T19:18:02.564Z,100.00
2022-08-12T19:20:35.841Z,100.00
2022-08-12T19:23:15.918Z,100.00
2022-08-12T19:26:00.188Z,100.00
2022-08-12T19:28:36.372Z,100.00
2022-08-12T19:31:55.290Z,100.00
2022-08-12T19:34:56.434Z,100.00
2022-08-12T19:37:20.385Z,100.00
2022-08-12T19:40:09.317Z,100.00
2022-08-12T19:42:44.295Z,100.00
2022-08-12T19:45:15.674Z,100.00
2022-08-12T19:47:46.947Z,100.00
2022-08-12T19:50:19.649Z,100.00
2022-08-12T19:52:51.275Z,100.00
2022-08-12T19:55:27.298Z,100.00
2022-08-12T19:58:01.708Z,100.00
2022-08-12T20:00:30.872Z,100.00
2022-08-12T20:03:00.906Z,100.00
2022-08-12T20:06:05.076Z,100.00
2022-08-12T20:08:31.369Z,100.00
2022-08-12T20:12:14.315Z,100.00
2022-08-12T20:14:00.264Z,100.00
2022-08-12T20:19:52.086Z,100.00
2022-08-12T20:22:24.309Z,100.00
2022-08-12T20:25:01.241Z,100.00
2022-08-12T20:28:05.136Z,100.00
2022-08-12T20:30:37.923Z,100.00
2022-08-12T20:33:17.439Z,100.00
2022-08-12T20:36:07.066Z,100.00
2022-08-12T20:38:42.169Z,100.00
2022-08-12T20:41:16.421Z,100.00
2022-08-12T20:43:50.415Z,100.00
2022-08-12T20:46:19.328Z,100.00
2022-08-12T20:48:55.127Z,100.00
2022-08-12T20:51:27.757Z,100.00
2022-08-12T20:53:59.071Z,100.00
2022-08-12T20:56:34.683Z,100.00
2022-08-12T20:59:07.118Z,100.00
2022-08-12T21:01:46.417Z,100.00
2022-08-12T21:04:34.884Z,100.00
2022-08-12T21:07:09.411Z,100.00
2022-08-12T21:09:41.999Z,100.00
2022-08-12T21:12:27.293Z,100.00
2022-08-12T21:15:17.037Z,100.00
2022-08-12T21:18:08.056Z,100.00
2022-08-12T21:20:38.572Z,100.00
2022-08-12T21:23:07.596Z,100.00
2022-08-12T21:25:45.109Z,100.00
2022-08-12T21:28:14.561Z,100.00
2022-08-12T21:31:11.137Z,100.00
2022-08-12T21:33:58.903Z,100.00
2022-08-12T21:36:32.429Z,100.00
2022-08-12T21:39:19.258Z,100.00
2022-08-12T21:41:51.576Z,100.00
2022-08-12T21:44:24.080Z,100.00
2022-08-12T21:47:20.404Z,100.00
2022-08-12T21:50:04.108Z,100.00
2022-08-12T21:52:36.572Z,100.00
2022-08-12T21:55:07.974Z,100.00
2022-08-12T21:57:50.532Z,100.00
2022-08-12T22:00:33.135Z,100.00
2022-08-12T22:04:11.179Z,100.00
2022-08-12T22:06:26.233Z,100.00
2022-08-12T22:09:02.593Z,100.00
2022-08-12T22:11:41.150Z,100.00
2022-08-12T22:14:21.442Z,100.00
2022-08-12T22:16:51.502Z,100.00
2022-08-12T22:19:21.450Z,100.00
2022-08-12T22:21:53.555Z,100.00
2022-08-12T22:24:26.606Z,100.00
2022-08-12T22:27:14.616Z,100.00
2022-08-12T22:30:07.669Z,100.00
2022-08-12T22:32:41.728Z,100.00
2022-08-12T22:35:29.740Z,100.00
2022-08-12T22:38:19.729Z,100.00
2022-08-12T22:40:48.208Z,100.00
2022-08-12T22:43:34.391Z,100.00
2022-08-12T22:46:20.660Z,100.00
2022-08-12T22:48:50.571Z,100.00
2022-08-12T22:51:24.033Z,100.00
2022-08-12T22:53:54.499Z,100.00
2022-08-12T22:56:31.039Z,100.00
2022-08-12T22:59:02.811Z,100.00
2022-08-12T23:01:52.022Z,100.00
2022-08-12T23:04:26.242Z,100.00
2022-08-12T23:07:05.193Z,100.00
2022-08-12T23:09:48.638Z,100.00
2022-08-12T23:12:40.983Z,100.00
2022-08-12T23:15:13.414Z,100.00
2022-08-12T23:17:42.726Z,100.00
2022-08-12T23:20:12.985Z,100.00
2022-08-12T23:22:43.995Z,100.00
2022-08-12T23:25:32.658Z,100.00
2022-08-12T23:28:36.342Z,100.00
2022-08-12T23:31:06.506Z,100.00
2022-08-12T23:34:01.876Z,100.00
2022-08-12T23:36:39.100Z,100.00
2022-08-12T23:40:15.377Z,100.00
2022-08-12T23:42:16.918Z,100.00
2022-08-12T23:44:48.569Z,100.00
2022-08-12T23:47:20.701Z,100.00
2022-08-12T23:49:58.211Z,100.00
2022-08-12T23:52:34.015Z,100.00
2022-08-12T23:55:24.845Z,100.00
2022-08-12T23:58:20.826Z,100.00
